sensor_id;sensor_type;location;lat;lon;timestamp;P1;durP1;ratioP1;P2;durP2;ratioP2
13660;SDS011;6903;49.480;11.102;2023-09-18T00:02:04;4.45;;;3.97;;
13660;SDS011;6903;49.480;11.102;2023-09-18T00:04:29;6.03;;;4.60;;
13660;SDS011;6903;49.480;11.102;2023-09-18T00:06:55;6.95;;;4.15;;
13660;SDS011;6903;49.480;11.102;2023-09-18T00:09:21;4.20;;;3.70;;
13660;SDS011;6903;49.480;11.102;2023-09-18T00:11:46;4.40;;;3.80;;
13660;SDS011;6903;49.480;11.102;2023-09-18T00:14:12;4.38;;;3.60;;
13660;SDS011;6903;49.480;11.102;2023-09-18T00:16:37;4.32;;;3.92;;
13660;SDS011;6903;49.480;11.102;2023-09-18T00:19:04;4.07;;;3.67;;
13660;SDS011;6903;49.480;11.102;2023-09-18T00:21:29;5.63;;;3.97;;
13660;SDS011;6903;49.480;11.102;2023-09-18T00:23:55;4.30;;;3.60;;
13660;SDS011;6903;49.480;11.102;2023-09-18T00:26:22;4.85;;;3.90;;
13660;SDS011;6903;49.480;11.102;2023-09-18T00:28:47;5.35;;;4.05;;
13660;SDS011;6903;49.480;11.102;2023-09-18T00:31:12;4.30;;;3.90;;
13660;SDS011;6903;49.480;11.102;2023-09-18T00:33:38;4.50;;;3.80;;
13660;SDS011;6903;49.480;11.102;2023-09-18T00:36:03;4.60;;;3.70;;
13660;SDS011;6903;49.480;11.102;2023-09-18T00:38:29;4.50;;;3.85;;
13660;SDS011;6903;49.480;11.102;2023-09-18T00:40:54;4.88;;;3.78;;
13660;SDS011;6903;49.480;11.102;2023-09-18T00:43:19;4.43;;;3.63;;
13660;SDS011;6903;49.480;11.102;2023-09-18T00:45:46;3.90;;;3.55;;
13660;SDS011;6903;49.480;11.102;2023-09-18T00:48:16;3.75;;;3.35;;
13660;SDS011;6903;49.480;11.102;2023-09-18T00:50:45;4.70;;;3.80;;
13660;SDS011;6903;49.480;11.102;2023-09-18T00:53:12;3.80;;;3.10;;
13660;SDS011;6903;49.480;11.102;2023-09-18T00:55:47;4.30;;;3.60;;
13660;SDS011;6903;49.480;11.102;2023-09-18T00:58:12;3.78;;;3.38;;
13660;SDS011;6903;49.480;11.102;2023-09-18T01:00:39;3.95;;;3.55;;
13660;SDS011;6903;49.480;11.102;2023-09-18T01:03:05;4.60;;;3.80;;
13660;SDS011;6903;49.480;11.102;2023-09-18T01:05:32;4.88;;;3.58;;
13660;SDS011;6903;49.480;11.102;2023-09-18T01:07:58;4.50;;;3.90;;
13660;SDS011;6903;49.480;11.102;2023-09-18T01:10:23;3.90;;;3.50;;
13660;SDS011;6903;49.480;11.102;2023-09-18T01:13:12;4.93;;;3.80;;
13660;SDS011;6903;49.480;11.102;2023-09-18T01:15:48;4.20;;;3.80;;
13660;SDS011;6903;49.480;11.102;2023-09-18T01:18:22;4.40;;;3.22;;
13660;SDS011;6903;49.480;11.102;2023-09-18T01:20:47;5.13;;;4.25;;
13660;SDS011;6903;49.480;11.102;2023-09-18T01:23:13;5.95;;;4.10;;
13660;SDS011;6903;49.480;11.102;2023-09-18T01:25:38;4.70;;;3.75;;
13660;SDS011;6903;49.480;11.102;2023-09-18T01:28:04;4.07;;;3.67;;
13660;SDS011;6903;49.480;11.102;2023-09-18T01:30:29;3.92;;;3.42;;
13660;SDS011;6903;49.480;11.102;2023-09-18T01:32:55;4.28;;;3.63;;
13660;SDS011;6903;49.480;11.102;2023-09-18T01:35:23;4.18;;;3.67;;
13660;SDS011;6903;49.480;11.102;2023-09-18T01:37:54;3.92;;;3.53;;
13660;SDS011;6903;49.480;11.102;2023-09-18T01:40:24;4.10;;;3.70;;
13660;SDS011;6903;49.480;11.102;2023-09-18T01:42:50;4.50;;;3.70;;
13660;SDS011;6903;49.480;11.102;2023-09-18T01:45:15;4.20;;;3.75;;
13660;SDS011;6903;49.480;11.102;2023-09-18T01:47:41;4.97;;;3.90;;
13660;SDS011;6903;49.480;11.102;2023-09-18T01:50:06;4.70;;;3.90;;
13660;SDS011;6903;49.480;11.102;2023-09-18T01:52:32;4.80;;;3.97;;
13660;SDS011;6903;49.480;11.102;2023-09-18T01:54:57;4.88;;;3.90;;
13660;SDS011;6903;49.480;11.102;2023-09-18T01:57:23;4.15;;;3.63;;
13660;SDS011;6903;49.480;11.102;2023-09-18T01:59:48;4.40;;;3.97;;
13660;SDS011;6903;49.480;11.102;2023-09-18T02:02:13;3.92;;;3.53;;
13660;SDS011;6903;49.480;11.102;2023-09-18T02:04:39;4.10;;;3.65;;
13660;SDS011;6903;49.480;11.102;2023-09-18T02:07:05;4.00;;;3.60;;
13660;SDS011;6903;49.480;11.102;2023-09-18T02:09:30;4.00;;;3.42;;
13660;SDS011;6903;49.480;11.102;2023-09-18T02:11:56;3.90;;;3.47;;
13660;SDS011;6903;49.480;11.102;2023-09-18T02:14:21;4.13;;;3.55;;
13660;SDS011;6903;49.480;11.102;2023-09-18T02:16:46;4.80;;;3.72;;
13660;SDS011;6903;49.480;11.102;2023-09-18T02:19:12;4.53;;;3.83;;
13660;SDS011;6903;49.480;11.102;2023-09-18T02:21:39;4.22;;;3.60;;
13660;SDS011;6903;49.480;11.102;2023-09-18T02:24:05;5.43;;;4.30;;
13660;SDS011;6903;49.480;11.102;2023-09-18T02:26:30;4.50;;;3.83;;
13660;SDS011;6903;49.480;11.102;2023-09-18T02:28:58;4.10;;;3.65;;
13660;SDS011;6903;49.480;11.102;2023-09-18T02:31:24;4.03;;;3.63;;
13660;SDS011;6903;49.480;11.102;2023-09-18T02:33:50;4.32;;;3.92;;
13660;SDS011;6903;49.480;11.102;2023-09-18T02:36:15;4.38;;;3.92;;
13660;SDS011;6903;49.480;11.102;2023-09-18T02:38:41;4.63;;;4.00;;
13660;SDS011;6903;49.480;11.102;2023-09-18T02:41:06;4.35;;;3.78;;
13660;SDS011;6903;49.480;11.102;2023-09-18T02:43:31;4.70;;;3.55;;
13660;SDS011;6903;49.480;11.102;2023-09-18T02:45:57;4.47;;;3.47;;
13660;SDS011;6903;49.480;11.102;2023-09-18T02:48:22;5.00;;;4.03;;
13660;SDS011;6903;49.480;11.102;2023-09-18T02:50:47;4.18;;;3.72;;
13660;SDS011;6903;49.480;11.102;2023-09-18T02:53:16;4.88;;;4.38;;
13660;SDS011;6903;49.480;11.102;2023-09-18T02:55:44;4.68;;;3.95;;
13660;SDS011;6903;49.480;11.102;2023-09-18T02:58:09;5.22;;;4.40;;
13660;SDS011;6903;49.480;11.102;2023-09-18T03:00:40;5.28;;;4.78;;
13660;SDS011;6903;49.480;11.102;2023-09-18T03:03:06;4.72;;;4.07;;
13660;SDS011;6903;49.480;11.102;2023-09-18T03:05:32;5.40;;;4.50;;
13660;SDS011;6903;49.480;11.102;2023-09-18T03:07:57;6.28;;;4.60;;
13660;SDS011;6903;49.480;11.102;2023-09-18T03:10:22;4.93;;;4.22;;
13660;SDS011;6903;49.480;11.102;2023-09-18T03:12:48;4.85;;;4.03;;
13660;SDS011;6903;49.480;11.102;2023-09-18T03:15:13;5.68;;;4.13;;
13660;SDS011;6903;49.480;11.102;2023-09-18T03:17:39;5.60;;;4.57;;
13660;SDS011;6903;49.480;11.102;2023-09-18T03:20:06;4.97;;;4.40;;
13660;SDS011;6903;49.480;11.102;2023-09-18T03:22:32;5.60;;;4.50;;
13660;SDS011;6903;49.480;11.102;2023-09-18T03:24:58;5.50;;;4.30;;
13660;SDS011;6903;49.480;11.102;2023-09-18T03:27:23;6.45;;;4.47;;
13660;SDS011;6903;49.480;11.102;2023-09-18T03:29:53;5.93;;;4.50;;
13660;SDS011;6903;49.480;11.102;2023-09-18T03:32:19;5.72;;;4.35;;
13660;SDS011;6903;49.480;11.102;2023-09-18T03:34:44;5.47;;;4.30;;
13660;SDS011;6903;49.480;11.102;2023-09-18T03:37:10;6.13;;;4.30;;
13660;SDS011;6903;49.480;11.102;2023-09-18T03:39:35;5.97;;;4.38;;
13660;SDS011;6903;49.480;11.102;2023-09-18T03:42:00;4.80;;;4.20;;
13660;SDS011;6903;49.480;11.102;2023-09-18T03:44:26;5.63;;;4.32;;
13660;SDS011;6903;49.480;11.102;2023-09-18T03:46:51;5.07;;;4.30;;
13660;SDS011;6903;49.480;11.102;2023-09-18T03:49:16;5.18;;;4.28;;
13660;SDS011;6903;49.480;11.102;2023-09-18T03:51:42;6.25;;;4.30;;
13660;SDS011;6903;49.480;11.102;2023-09-18T03:54:07;5.55;;;4.82;;
13660;SDS011;6903;49.480;11.102;2023-09-18T03:56:33;6.32;;;5.15;;
13660;SDS011;6903;49.480;11.102;2023-09-18T03:58:58;6.03;;;4.47;;
13660;SDS011;6903;49.480;11.102;2023-09-18T04:01:26;6.40;;;4.40;;
13660;SDS011;6903;49.480;11.102;2023-09-18T04:03:51;5.63;;;4.40;;
13660;SDS011;6903;49.480;11.102;2023-09-18T04:06:17;6.32;;;4.93;;
13660;SDS011;6903;49.480;11.102;2023-09-18T04:08:45;5.80;;;4.75;;
13660;SDS011;6903;49.480;11.102;2023-09-18T04:11:10;5.50;;;4.75;;
13660;SDS011;6903;49.480;11.102;2023-09-18T04:13:36;5.15;;;4.00;;
13660;SDS011;6903;49.480;11.102;2023-09-18T04:16:02;5.03;;;4.35;;
13660;SDS011;6903;49.480;11.102;2023-09-18T04:18:29;6.35;;;4.53;;
13660;SDS011;6903;49.480;11.102;2023-09-18T04:20:54;5.80;;;4.65;;
13660;SDS011;6903;49.480;11.102;2023-09-18T04:23:20;8.65;;;5.60;;
13660;SDS011;6903;49.480;11.102;2023-09-18T04:25:50;6.05;;;4.90;;
13660;SDS011;6903;49.480;11.102;2023-09-18T04:28:16;7.10;;;5.25;;
13660;SDS011;6903;49.480;11.102;2023-09-18T04:30:44;6.50;;;5.53;;
13660;SDS011;6903;49.480;11.102;2023-09-18T04:33:09;7.05;;;5.15;;
13660;SDS011;6903;49.480;11.102;2023-09-18T04:35:34;7.55;;;5.47;;
13660;SDS011;6903;49.480;11.102;2023-09-18T04:38:00;5.95;;;4.95;;
13660;SDS011;6903;49.480;11.102;2023-09-18T04:40:25;6.05;;;4.88;;
13660;SDS011;6903;49.480;11.102;2023-09-18T04:42:57;6.95;;;4.95;;
13660;SDS011;6903;49.480;11.102;2023-09-18T04:45:23;6.32;;;5.05;;
13660;SDS011;6903;49.480;11.102;2023-09-18T04:47:49;6.78;;;5.85;;
13660;SDS011;6903;49.480;11.102;2023-09-18T04:50:14;6.63;;;5.45;;
13660;SDS011;6903;49.480;11.102;2023-09-18T04:52:40;7.70;;;5.10;;
13660;SDS011;6903;49.480;11.102;2023-09-18T04:55:09;6.97;;;5.25;;
13660;SDS011;6903;49.480;11.102;2023-09-18T04:57:35;6.22;;;4.85;;
13660;SDS011;6903;49.480;11.102;2023-09-18T05:00:00;6.00;;;4.75;;
13660;SDS011;6903;49.480;11.102;2023-09-18T05:02:26;5.93;;;4.63;;
13660;SDS011;6903;49.480;11.102;2023-09-18T05:04:52;6.68;;;4.88;;
13660;SDS011;6903;49.480;11.102;2023-09-18T05:07:17;6.82;;;5.15;;
13660;SDS011;6903;49.480;11.102;2023-09-18T05:09:42;5.20;;;4.70;;
13660;SDS011;6903;49.480;11.102;2023-09-18T05:12:08;6.28;;;4.60;;
13660;SDS011;6903;49.480;11.102;2023-09-18T05:14:38;5.60;;;4.32;;
13660;SDS011;6903;49.480;11.102;2023-09-18T05:17:04;5.68;;;4.57;;
13660;SDS011;6903;49.480;11.102;2023-09-18T05:19:30;5.22;;;4.40;;
13660;SDS011;6903;49.480;11.102;2023-09-18T05:21:55;7.07;;;4.57;;
13660;SDS011;6903;49.480;11.102;2023-09-18T05:24:20;6.60;;;4.88;;
13660;SDS011;6903;49.480;11.102;2023-09-18T05:26:51;5.53;;;4.68;;
13660;SDS011;6903;49.480;11.102;2023-09-18T05:29:18;5.45;;;4.53;;
13660;SDS011;6903;49.480;11.102;2023-09-18T05:31:43;5.40;;;4.40;;
13660;SDS011;6903;49.480;11.102;2023-09-18T05:34:10;6.10;;;4.50;;
13660;SDS011;6903;49.480;11.102;2023-09-18T05:36:36;8.07;;;5.22;;
13660;SDS011;6903;49.480;11.102;2023-09-18T05:39:01;9.02;;;5.90;;
13660;SDS011;6903;49.480;11.102;2023-09-18T05:41:26;7.10;;;4.82;;
13660;SDS011;6903;49.480;11.102;2023-09-18T05:43:53;5.25;;;4.43;;
13660;SDS011;6903;49.480;11.102;2023-09-18T05:46:19;5.68;;;4.45;;
13660;SDS011;6903;49.480;11.102;2023-09-18T05:48:44;4.93;;;4.43;;
13660;SDS011;6903;49.480;11.102;2023-09-18T05:51:10;5.20;;;4.18;;
13660;SDS011;6903;49.480;11.102;2023-09-18T05:53:35;4.43;;;3.90;;
13660;SDS011;6903;49.480;11.102;2023-09-18T05:56:02;5.32;;;4.30;;
13660;SDS011;6903;49.480;11.102;2023-09-18T05:58:29;5.63;;;4.28;;
13660;SDS011;6903;49.480;11.102;2023-09-18T06:00:57;4.78;;;4.22;;
13660;SDS011;6903;49.480;11.102;2023-09-18T06:03:25;5.40;;;4.53;;
13660;SDS011;6903;49.480;11.102;2023-09-18T06:05:51;5.32;;;4.35;;
13660;SDS011;6903;49.480;11.102;2023-09-18T06:08:16;4.70;;;4.07;;
13660;SDS011;6903;49.480;11.102;2023-09-18T06:10:43;4.75;;;4.15;;
13660;SDS011;6903;49.480;11.102;2023-09-18T06:13:09;4.65;;;4.15;;
13660;SDS011;6903;49.480;11.102;2023-09-18T06:15:34;5.18;;;3.90;;
13660;SDS011;6903;49.480;11.102;2023-09-18T06:17:59;5.38;;;4.60;;
13660;SDS011;6903;49.480;11.102;2023-09-18T06:20:25;4.53;;;4.13;;
13660;SDS011;6903;49.480;11.102;2023-09-18T06:22:50;5.38;;;4.32;;
13660;SDS011;6903;49.480;11.102;2023-09-18T06:25:15;5.07;;;4.47;;
13660;SDS011;6903;49.480;11.102;2023-09-18T06:27:41;5.25;;;4.32;;
13660;SDS011;6903;49.480;11.102;2023-09-18T06:30:07;4.93;;;4.38;;
13660;SDS011;6903;49.480;11.102;2023-09-18T06:32:32;4.50;;;3.97;;
13660;SDS011;6903;49.480;11.102;2023-09-18T06:34:58;4.75;;;4.00;;
13660;SDS011;6903;49.480;11.102;2023-09-18T06:37:25;5.18;;;4.25;;
13660;SDS011;6903;49.480;11.102;2023-09-18T06:39:51;5.45;;;3.92;;
13660;SDS011;6903;49.480;11.102;2023-09-18T06:42:17;4.47;;;4.07;;
13660;SDS011;6903;49.480;11.102;2023-09-18T06:44:42;4.97;;;4.38;;
13660;SDS011;6903;49.480;11.102;2023-09-18T06:47:07;5.22;;;3.97;;
13660;SDS011;6903;49.480;11.102;2023-09-18T06:49:33;5.00;;;3.67;;
13660;SDS011;6903;49.480;11.102;2023-09-18T06:51:59;6.25;;;4.53;;
13660;SDS011;6903;49.480;11.102;2023-09-18T06:54:24;5.55;;;4.40;;
13660;SDS011;6903;49.480;11.102;2023-09-18T06:56:49;5.25;;;3.70;;
13660;SDS011;6903;49.480;11.102;2023-09-18T06:59:15;4.82;;;3.90;;
13660;SDS011;6903;49.480;11.102;2023-09-18T07:01:41;4.50;;;4.05;;
13660;SDS011;6903;49.480;11.102;2023-09-18T07:04:07;4.47;;;4.07;;
13660;SDS011;6903;49.480;11.102;2023-09-18T07:06:33;4.43;;;3.83;;
13660;SDS011;6903;49.480;11.102;2023-09-18T07:08:58;5.03;;;4.10;;
13660;SDS011;6903;49.480;11.102;2023-09-18T07:11:24;4.70;;;3.65;;
13660;SDS011;6903;49.480;11.102;2023-09-18T07:13:50;4.20;;;3.80;;
13660;SDS011;6903;49.480;11.102;2023-09-18T07:16:15;4.53;;;3.50;;
13660;SDS011;6903;49.480;11.102;2023-09-18T07:18:40;5.15;;;3.90;;
13660;SDS011;6903;49.480;11.102;2023-09-18T07:21:06;4.18;;;3.38;;
13660;SDS011;6903;49.480;11.102;2023-09-18T07:23:31;3.80;;;3.50;;
13660;SDS011;6903;49.480;11.102;2023-09-18T07:25:57;3.75;;;3.45;;
13660;SDS011;6903;49.480;11.102;2023-09-18T07:28:25;3.78;;;3.13;;
13660;SDS011;6903;49.480;11.102;2023-09-18T07:30:51;4.38;;;3.97;;
13660;SDS011;6903;49.480;11.102;2023-09-18T07:33:17;3.88;;;3.22;;
13660;SDS011;6903;49.480;11.102;2023-09-18T07:35:47;3.72;;;3.38;;
13660;SDS011;6903;49.480;11.102;2023-09-18T07:38:13;3.33;;;3.03;;
13660;SDS011;6903;49.480;11.102;2023-09-18T07:40:39;3.92;;;3.30;;
13660;SDS011;6903;49.480;11.102;2023-09-18T07:43:04;3.88;;;3.25;;
13660;SDS011;6903;49.480;11.102;2023-09-18T07:45:29;3.63;;;3.15;;
13660;SDS011;6903;49.480;11.102;2023-09-18T07:47:55;3.90;;;3.50;;
13660;SDS011;6903;49.480;11.102;2023-09-18T07:50:20;3.63;;;3.33;;
13660;SDS011;6903;49.480;11.102;2023-09-18T07:52:45;3.70;;;3.40;;
13660;SDS011;6903;49.480;11.102;2023-09-18T07:55:11;3.58;;;3.15;;
13660;SDS011;6903;49.480;11.102;2023-09-18T07:57:36;3.35;;;3.05;;
13660;SDS011;6903;49.480;11.102;2023-09-18T08:00:02;3.75;;;3.10;;
13660;SDS011;6903;49.480;11.102;2023-09-18T08:02:32;3.88;;;2.92;;
13660;SDS011;6903;49.480;11.102;2023-09-18T08:05:00;4.32;;;2.97;;
13660;SDS011;6903;49.480;11.102;2023-09-18T08:07:25;4.82;;;3.58;;
13660;SDS011;6903;49.480;11.102;2023-09-18T08:09:50;3.40;;;3.10;;
13660;SDS011;6903;49.480;11.102;2023-09-18T08:12:16;3.60;;;3.10;;
13660;SDS011;6903;49.480;11.102;2023-09-18T08:14:41;4.13;;;3.15;;
13660;SDS011;6903;49.480;11.102;2023-09-18T08:17:07;3.50;;;3.20;;
13660;SDS011;6903;49.480;11.102;2023-09-18T08:19:32;3.95;;;3.03;;
13660;SDS011;6903;49.480;11.102;2023-09-18T08:21:58;3.50;;;2.88;;
13660;SDS011;6903;49.480;11.102;2023-09-18T08:24:26;3.15;;;2.85;;
13660;SDS011;6903;49.480;11.102;2023-09-18T08:26:52;3.67;;;2.90;;
13660;SDS011;6903;49.480;11.102;2023-09-18T08:29:18;3.47;;;3.10;;
13660;SDS011;6903;49.480;11.102;2023-09-18T08:31:44;3.55;;;2.95;;
13660;SDS011;6903;49.480;11.102;2023-09-18T08:34:09;2.88;;;2.45;;
13660;SDS011;6903;49.480;11.102;2023-09-18T08:36:34;3.15;;;2.80;;
13660;SDS011;6903;49.480;11.102;2023-09-18T08:39:00;4.43;;;2.53;;
13660;SDS011;6903;49.480;11.102;2023-09-18T08:41:26;3.92;;;2.80;;
13660;SDS011;6903;49.480;11.102;2023-09-18T08:43:56;2.90;;;2.55;;
13660;SDS011;6903;49.480;11.102;2023-09-18T08:46:24;3.45;;;2.90;;
13660;SDS011;6903;49.480;11.102;2023-09-18T08:48:50;3.90;;;3.50;;
13660;SDS011;6903;49.480;11.102;2023-09-18T08:51:16;3.33;;;2.70;;
13660;SDS011;6903;49.480;11.102;2023-09-18T08:53:43;3.08;;;2.78;;
13660;SDS011;6903;49.480;11.102;2023-09-18T08:56:10;2.47;;;2.25;;
13660;SDS011;6903;49.480;11.102;2023-09-18T08:58:38;3.22;;;2.33;;
13660;SDS011;6903;49.480;11.102;2023-09-18T09:01:07;3.60;;;2.75;;
13660;SDS011;6903;49.480;11.102;2023-09-18T09:03:38;2.72;;;2.30;;
13660;SDS011;6903;49.480;11.102;2023-09-18T09:06:08;3.30;;;2.45;;
13660;SDS011;6903;49.480;11.102;2023-09-18T09:08:34;2.90;;;2.50;;
13660;SDS011;6903;49.480;11.102;2023-09-18T09:11:00;4.32;;;2.90;;
13660;SDS011;6903;49.480;11.102;2023-09-18T09:13:26;2.35;;;2.00;;
13660;SDS011;6903;49.480;11.102;2023-09-18T09:15:52;2.22;;;2.03;;
13660;SDS011;6903;49.480;11.102;2023-09-18T09:18:21;2.47;;;2.25;;
13660;SDS011;6903;49.480;11.102;2023-09-18T09:20:58;3.75;;;2.40;;
13660;SDS011;6903;49.480;11.102;2023-09-18T09:23:25;2.88;;;2.10;;
13660;SDS011;6903;49.480;11.102;2023-09-18T09:25:52;3.85;;;1.90;;
13660;SDS011;6903;49.480;11.102;2023-09-18T09:28:28;2.33;;;1.90;;
13660;SDS011;6903;49.480;11.102;2023-09-18T09:30:59;3.72;;;1.95;;
13660;SDS011;6903;49.480;11.102;2023-09-18T09:33:27;2.35;;;1.98;;
13660;SDS011;6903;49.480;11.102;2023-09-18T09:35:52;1.77;;;1.67;;
13660;SDS011;6903;49.480;11.102;2023-09-18T09:38:18;3.42;;;1.90;;
13660;SDS011;6903;49.480;11.102;2023-09-18T09:40:45;3.25;;;2.05;;
13660;SDS011;6903;49.480;11.102;2023-09-18T09:43:11;2.42;;;1.90;;
13660;SDS011;6903;49.480;11.102;2023-09-18T09:45:39;2.85;;;1.65;;
13660;SDS011;6903;49.480;11.102;2023-09-18T09:48:05;2.03;;;1.83;;
13660;SDS011;6903;49.480;11.102;2023-09-18T09:50:31;3.08;;;1.70;;
13660;SDS011;6903;49.480;11.102;2023-09-18T09:52:57;2.45;;;1.80;;
13660;SDS011;6903;49.480;11.102;2023-09-18T09:55:27;3.08;;;2.63;;
13660;SDS011;6903;49.480;11.102;2023-09-18T09:57:58;4.53;;;1.90;;
13660;SDS011;6903;49.480;11.102;2023-09-18T10:00:32;1.70;;;1.55;;
13660;SDS011;6903;49.480;11.102;2023-09-18T10:03:08;2.47;;;1.75;;
13660;SDS011;6903;49.480;11.102;2023-09-18T10:05:35;2.38;;;1.80;;
13660;SDS011;6903;49.480;11.102;2023-09-18T10:08:04;3.15;;;2.13;;
13660;SDS011;6903;49.480;11.102;2023-09-18T10:10:34;2.50;;;1.60;;
13660;SDS011;6903;49.480;11.102;2023-09-18T10:13:09;2.45;;;1.33;;
13660;SDS011;6903;49.480;11.102;2023-09-18T10:15:38;2.60;;;2.10;;
13660;SDS011;6903;49.480;11.102;2023-09-18T10:18:08;1.98;;;1.65;;
13660;SDS011;6903;49.480;11.102;2023-09-18T10:20:42;2.53;;;1.17;;
13660;SDS011;6903;49.480;11.102;2023-09-18T10:23:12;1.27;;;1.13;;
13660;SDS011;6903;49.480;11.102;2023-09-18T10:25:48;1.88;;;1.10;;
13660;SDS011;6903;49.480;11.102;2023-09-18T10:28:17;1.27;;;1.10;;
13660;SDS011;6903;49.480;11.102;2023-09-18T10:30:43;2.17;;;1.35;;
13660;SDS011;6903;49.480;11.102;2023-09-18T10:33:09;1.65;;;1.10;;
13660;SDS011;6903;49.480;11.102;2023-09-18T10:35:35;1.48;;;1.15;;
13660;SDS011;6903;49.480;11.102;2023-09-18T10:38:01;1.75;;;1.20;;
13660;SDS011;6903;49.480;11.102;2023-09-18T10:40:28;2.15;;;1.33;;
13660;SDS011;6903;49.480;11.102;2023-09-18T10:42:55;3.22;;;1.33;;
13660;SDS011;6903;49.480;11.102;2023-09-18T10:45:23;1.50;;;1.10;;
13660;SDS011;6903;49.480;11.102;2023-09-18T10:47:48;2.08;;;1.40;;
13660;SDS011;6903;49.480;11.102;2023-09-18T10:50:24;2.05;;;1.23;;
13660;SDS011;6903;49.480;11.102;2023-09-18T10:52:51;3.72;;;1.10;;
13660;SDS011;6903;49.480;11.102;2023-09-18T10:55:16;1.77;;;1.30;;
13660;SDS011;6903;49.480;11.102;2023-09-18T10:57:51;1.55;;;1.42;;
13660;SDS011;6903;49.480;11.102;2023-09-18T11:00:19;2.10;;;1.10;;
13660;SDS011;6903;49.480;11.102;2023-09-18T11:02:49;1.75;;;1.15;;
13660;SDS011;6903;49.480;11.102;2023-09-18T11:05:37;2.92;;;1.15;;
13660;SDS011;6903;49.480;11.102;2023-09-18T11:13:38;3.90;;;1.40;;
13660;SDS011;6903;49.480;11.102;2023-09-18T11:18:52;3.05;;;1.10;;
13660;SDS011;6903;49.480;11.102;2023-09-18T11:21:24;1.27;;;0.90;;
13660;SDS011;6903;49.480;11.102;2023-09-18T11:23:59;1.55;;;0.85;;
13660;SDS011;6903;49.480;11.102;2023-09-18T11:26:32;2.00;;;0.90;;
13660;SDS011;6903;49.480;11.102;2023-09-18T11:29:00;3.33;;;1.20;;
13660;SDS011;6903;49.480;11.102;2023-09-18T11:31:50;1.58;;;0.90;;
13660;SDS011;6903;49.480;11.102;2023-09-18T11:34:26;3.90;;;1.00;;
13660;SDS011;6903;49.480;11.102;2023-09-18T11:36:53;1.77;;;0.70;;
13660;SDS011;6903;49.480;11.102;2023-09-18T11:42:12;1.60;;;0.73;;
13660;SDS011;6903;49.480;11.102;2023-09-18T11:44:39;1.02;;;0.70;;
13660;SDS011;6903;49.480;11.102;2023-09-18T11:47:12;1.33;;;0.70;;
13660;SDS011;6903;49.480;11.102;2023-09-18T11:49:51;1.58;;;0.80;;
13660;SDS011;6903;49.480;11.102;2023-09-18T11:52:23;0.85;;;0.73;;
13660;SDS011;6903;49.480;11.102;2023-09-18T11:54:49;1.42;;;0.80;;
13660;SDS011;6903;49.480;11.102;2023-09-18T11:57:16;1.98;;;0.98;;
13660;SDS011;6903;49.480;11.102;2023-09-18T11:59:42;0.90;;;0.90;;
13660;SDS011;6903;49.480;11.102;2023-09-18T12:02:09;0.68;;;0.60;;
13660;SDS011;6903;49.480;11.102;2023-09-18T12:04:36;1.10;;;0.68;;
13660;SDS011;6903;49.480;11.102;2023-09-18T12:07:03;0.82;;;0.60;;
13660;SDS011;6903;49.480;11.102;2023-09-18T12:09:30;1.05;;;0.80;;
13660;SDS011;6903;49.480;11.102;2023-09-18T12:11:57;1.63;;;0.75;;
13660;SDS011;6903;49.480;11.102;2023-09-18T12:14:23;1.25;;;0.90;;
13660;SDS011;6903;49.480;11.102;2023-09-18T12:16:49;1.30;;;1.02;;
13660;SDS011;6903;49.480;11.102;2023-09-18T12:19:18;0.73;;;0.73;;
13660;SDS011;6903;49.480;11.102;2023-09-18T12:21:45;1.92;;;0.80;;
13660;SDS011;6903;49.480;11.102;2023-09-18T12:24:24;1.20;;;0.70;;
13660;SDS011;6903;49.480;11.102;2023-09-18T12:26:53;1.27;;;0.75;;
13660;SDS011;6903;49.480;11.102;2023-09-18T12:29:22;1.05;;;0.80;;
13660;SDS011;6903;49.480;11.102;2023-09-18T12:31:48;0.90;;;0.80;;
13660;SDS011;6903;49.480;11.102;2023-09-18T12:34:16;1.65;;;0.80;;
13660;SDS011;6903;49.480;11.102;2023-09-18T12:36:43;1.98;;;0.90;;
13660;SDS011;6903;49.480;11.102;2023-09-18T12:39:12;1.08;;;0.70;;
13660;SDS011;6903;49.480;11.102;2023-09-18T12:41:38;1.02;;;0.70;;
13660;SDS011;6903;49.480;11.102;2023-09-18T12:44:05;1.65;;;0.80;;
13660;SDS011;6903;49.480;11.102;2023-09-18T12:46:31;1.55;;;0.95;;
13660;SDS011;6903;49.480;11.102;2023-09-18T12:48:59;0.80;;;0.70;;
13660;SDS011;6903;49.480;11.102;2023-09-18T12:51:30;1.70;;;1.30;;
13660;SDS011;6903;49.480;11.102;2023-09-18T12:54:00;1.00;;;0.90;;
13660;SDS011;6903;49.480;11.102;2023-09-18T12:56:26;2.15;;;1.10;;
13660;SDS011;6903;49.480;11.102;2023-09-18T12:58:51;1.15;;;0.95;;
13660;SDS011;6903;49.480;11.102;2023-09-18T13:01:16;0.98;;;0.73;;
13660;SDS011;6903;49.480;11.102;2023-09-18T13:03:42;1.33;;;0.85;;
13660;SDS011;6903;49.480;11.102;2023-09-18T13:06:18;1.88;;;1.00;;
13660;SDS011;6903;49.480;11.102;2023-09-18T13:08:44;2.75;;;1.00;;
13660;SDS011;6903;49.480;11.102;2023-09-18T13:11:10;1.00;;;0.90;;
13660;SDS011;6903;49.480;11.102;2023-09-18T13:13:37;2.17;;;1.45;;
13660;SDS011;6903;49.480;11.102;2023-09-18T13:16:06;1.63;;;1.33;;
13660;SDS011;6903;49.480;11.102;2023-09-18T13:18:33;1.38;;;1.10;;
13660;SDS011;6903;49.480;11.102;2023-09-18T13:20:59;1.50;;;0.82;;
13660;SDS011;6903;49.480;11.102;2023-09-18T13:23:28;2.03;;;0.93;;
13660;SDS011;6903;49.480;11.102;2023-09-18T13:25:58;1.05;;;0.95;;
13660;SDS011;6903;49.480;11.102;2023-09-18T13:28:28;1.83;;;1.02;;
13660;SDS011;6903;49.480;11.102;2023-09-18T13:30:56;1.00;;;0.88;;
13660;SDS011;6903;49.480;11.102;2023-09-18T13:33:21;2.15;;;0.98;;
13660;SDS011;6903;49.480;11.102;2023-09-18T13:35:48;1.08;;;0.75;;
13660;SDS011;6903;49.480;11.102;2023-09-18T13:38:14;1.15;;;0.80;;
13660;SDS011;6903;49.480;11.102;2023-09-18T13:40:39;1.17;;;0.75;;
13660;SDS011;6903;49.480;11.102;2023-09-18T13:43:06;2.38;;;1.10;;
13660;SDS011;6903;49.480;11.102;2023-09-18T13:45:33;0.80;;;0.80;;
13660;SDS011;6903;49.480;11.102;2023-09-18T13:48:00;2.40;;;1.30;;
13660;SDS011;6903;49.480;11.102;2023-09-18T13:50:25;1.17;;;0.77;;
13660;SDS011;6903;49.480;11.102;2023-09-18T13:52:51;1.23;;;0.73;;
13660;SDS011;6903;49.480;11.102;2023-09-18T13:55:16;1.30;;;0.88;;
13660;SDS011;6903;49.480;11.102;2023-09-18T13:57:41;2.15;;;1.20;;
13660;SDS011;6903;49.480;11.102;2023-09-18T14:00:07;1.33;;;0.82;;
13660;SDS011;6903;49.480;11.102;2023-09-18T14:02:37;2.20;;;1.17;;
13660;SDS011;6903;49.480;11.102;2023-09-18T14:05:03;1.45;;;1.02;;
13660;SDS011;6903;49.480;11.102;2023-09-18T14:07:29;1.00;;;0.90;;
13660;SDS011;6903;49.480;11.102;2023-09-18T14:09:54;1.13;;;0.98;;
13660;SDS011;6903;49.480;11.102;2023-09-18T14:12:20;1.50;;;0.90;;
13660;SDS011;6903;49.480;11.102;2023-09-18T14:14:45;0.82;;;0.70;;
13660;SDS011;6903;49.480;11.102;2023-09-18T14:17:11;0.95;;;0.70;;
13660;SDS011;6903;49.480;11.102;2023-09-18T14:19:36;1.80;;;0.80;;
13660;SDS011;6903;49.480;11.102;2023-09-18T14:22:05;1.08;;;0.98;;
13660;SDS011;6903;49.480;11.102;2023-09-18T14:24:31;0.75;;;0.75;;
13660;SDS011;6903;49.480;11.102;2023-09-18T14:26:59;1.30;;;0.98;;
13660;SDS011;6903;49.480;11.102;2023-09-18T14:29:25;0.85;;;0.75;;
13660;SDS011;6903;49.480;11.102;2023-09-18T14:31:51;0.73;;;0.70;;
13660;SDS011;6903;49.480;11.102;2023-09-18T14:34:16;1.50;;;0.90;;
13660;SDS011;6903;49.480;11.102;2023-09-18T14:36:42;0.98;;;0.85;;
13660;SDS011;6903;49.480;11.102;2023-09-18T14:39:07;0.90;;;0.80;;
13660;SDS011;6903;49.480;11.102;2023-09-18T14:41:34;0.95;;;0.80;;
13660;SDS011;6903;49.480;11.102;2023-09-18T14:44:03;1.15;;;0.90;;
13660;SDS011;6903;49.480;11.102;2023-09-18T14:46:32;1.00;;;0.75;;
13660;SDS011;6903;49.480;11.102;2023-09-18T14:48:58;2.00;;;0.93;;
13660;SDS011;6903;49.480;11.102;2023-09-18T14:51:25;1.52;;;1.10;;
13660;SDS011;6903;49.480;11.102;2023-09-18T14:53:50;1.05;;;0.80;;
13660;SDS011;6903;49.480;11.102;2023-09-18T14:56:15;0.93;;;0.88;;
13660;SDS011;6903;49.480;11.102;2023-09-18T14:58:41;1.52;;;0.88;;